sensor_id;sensor_type;location;lat;lon;timestamp;P1;durP1;ratioP1;P2;durP2;ratioP2
60730;SDS011;46580;52.114;11.674;2023-05-27T00:02:24;6.70;;;3.63;;
60730;SDS011;46580;52.114;11.674;2023-05-27T00:04:50;11.73;;;3.87;;
60730;SDS011;46580;52.114;11.674;2023-05-27T00:07:16;13.27;;;4.00;;
60730;SDS011;46580;52.114;11.674;2023-05-27T00:09:41;10.27;;;3.77;;
60730;SDS011;46580;52.114;11.674;2023-05-27T00:12:09;7.30;;;3.57;;
60730;SDS011;46580;52.114;11.674;2023-05-27T00:14:35;11.10;;;3.50;;
60730;SDS011;46580;52.114;11.674;2023-05-27T00:17:00;12.83;;;4.00;;
60730;SDS011;46580;52.114;11.674;2023-05-27T00:19:27;9.80;;;4.23;;
60730;SDS011;46580;52.114;11.674;2023-05-27T00:21:56;9.10;;;3.67;;
60730;SDS011;46580;52.114;11.674;2023-05-27T00:24:21;11.77;;;3.97;;
60730;SDS011;46580;52.114;11.674;2023-05-27T00:26:47;10.70;;;3.80;;
60730;SDS011;46580;52.114;11.674;2023-05-27T00:29:13;9.23;;;4.00;;
60730;SDS011;46580;52.114;11.674;2023-05-27T00:31:38;8.93;;;3.40;;
60730;SDS011;46580;52.114;11.674;2023-05-27T00:34:04;13.17;;;3.83;;
60730;SDS011;46580;52.114;11.674;2023-05-27T00:36:29;12.20;;;4.23;;
60730;SDS011;46580;52.114;11.674;2023-05-27T00:38:56;6.47;;;2.90;;
60730;SDS011;46580;52.114;11.674;2023-05-27T00:41:22;10.17;;;3.63;;
60730;SDS011;46580;52.114;11.674;2023-05-27T00:43:48;11.13;;;3.60;;
60730;SDS011;46580;52.114;11.674;2023-05-27T00:46:14;9.70;;;4.47;;
60730;SDS011;46580;52.114;11.674;2023-05-27T00:48:40;7.73;;;3.83;;
60730;SDS011;46580;52.114;11.674;2023-05-27T00:51:07;8.33;;;3.20;;
60730;SDS011;46580;52.114;11.674;2023-05-27T00:53:36;13.07;;;4.10;;
60730;SDS011;46580;52.114;11.674;2023-05-27T00:56:11;7.47;;;3.60;;
60730;SDS011;46580;52.114;11.674;2023-05-27T00:58:40;7.70;;;3.63;;
60730;SDS011;46580;52.114;11.674;2023-05-27T01:01:06;12.93;;;3.93;;
60730;SDS011;46580;52.114;11.674;2023-05-27T01:03:32;7.83;;;3.63;;
60730;SDS011;46580;52.114;11.674;2023-05-27T01:06:01;7.20;;;3.23;;
60730;SDS011;46580;52.114;11.674;2023-05-27T01:11:21;8.40;;;3.20;;
60730;SDS011;46580;52.114;11.674;2023-05-27T01:13:52;10.67;;;4.23;;
60730;SDS011;46580;52.114;11.674;2023-05-27T01:16:26;10.00;;;3.40;;
60730;SDS011;46580;52.114;11.674;2023-05-27T01:18:53;10.33;;;3.50;;
60730;SDS011;46580;52.114;11.674;2023-05-27T01:21:24;13.10;;;3.43;;
60730;SDS011;46580;52.114;11.674;2023-05-27T01:24:02;10.63;;;4.10;;
60730;SDS011;46580;52.114;11.674;2023-05-27T01:26:28;21.67;;;4.57;;
60730;SDS011;46580;52.114;11.674;2023-05-27T01:28:53;10.80;;;3.87;;
60730;SDS011;46580;52.114;11.674;2023-05-27T01:31:23;10.97;;;3.63;;
60730;SDS011;46580;52.114;11.674;2023-05-27T01:34:00;8.30;;;3.43;;
60730;SDS011;46580;52.114;11.674;2023-05-27T01:36:35;8.03;;;3.47;;
60730;SDS011;46580;52.114;11.674;2023-05-27T01:39:05;12.20;;;4.03;;
60730;SDS011;46580;52.114;11.674;2023-05-27T01:41:32;8.20;;;3.27;;
60730;SDS011;46580;52.114;11.674;2023-05-27T01:43:59;11.17;;;3.77;;
60730;SDS011;46580;52.114;11.674;2023-05-27T01:46:25;14.40;;;4.00;;
60730;SDS011;46580;52.114;11.674;2023-05-27T01:48:50;10.57;;;3.70;;
60730;SDS011;46580;52.114;11.674;2023-05-27T01:51:16;9.73;;;3.83;;
60730;SDS011;46580;52.114;11.674;2023-05-27T01:53:41;10.43;;;3.40;;
60730;SDS011;46580;52.114;11.674;2023-05-27T01:56:07;8.10;;;3.90;;
60730;SDS011;46580;52.114;11.674;2023-05-27T01:58:32;10.63;;;3.63;;
60730;SDS011;46580;52.114;11.674;2023-05-27T02:00:58;9.50;;;3.57;;
60730;SDS011;46580;52.114;11.674;2023-05-27T02:03:23;7.27;;;3.40;;
60730;SDS011;46580;52.114;11.674;2023-05-27T02:05:49;7.37;;;3.33;;
60730;SDS011;46580;52.114;11.674;2023-05-27T02:08:14;8.03;;;4.03;;
60730;SDS011;46580;52.114;11.674;2023-05-27T02:10:40;11.77;;;3.90;;
60730;SDS011;46580;52.114;11.674;2023-05-27T02:13:05;9.40;;;3.87;;
60730;SDS011;46580;52.114;11.674;2023-05-27T02:15:31;13.07;;;4.17;;
60730;SDS011;46580;52.114;11.674;2023-05-27T02:17:57;8.93;;;3.90;;
60730;SDS011;46580;52.114;11.674;2023-05-27T02:20:23;8.33;;;3.87;;
60730;SDS011;46580;52.114;11.674;2023-05-27T02:22:49;10.87;;;3.97;;
60730;SDS011;46580;52.114;11.674;2023-05-27T02:25:15;11.20;;;3.67;;
60730;SDS011;46580;52.114;11.674;2023-05-27T02:27:41;10.50;;;3.80;;
60730;SDS011;46580;52.114;11.674;2023-05-27T02:30:13;8.67;;;4.03;;
60730;SDS011;46580;52.114;11.674;2023-05-27T02:32:40;8.97;;;3.60;;
60730;SDS011;46580;52.114;11.674;2023-05-27T02:35:05;10.47;;;3.63;;
60730;SDS011;46580;52.114;11.674;2023-05-27T02:37:32;7.90;;;3.53;;
60730;SDS011;46580;52.114;11.674;2023-05-27T02:39:57;7.53;;;3.53;;
60730;SDS011;46580;52.114;11.674;2023-05-27T02:42:23;8.67;;;3.63;;
60730;SDS011;46580;52.114;11.674;2023-05-27T02:44:48;9.27;;;3.67;;
60730;SDS011;46580;52.114;11.674;2023-05-27T02:47:14;12.83;;;3.47;;
60730;SDS011;46580;52.114;11.674;2023-05-27T02:49:39;10.13;;;3.40;;
60730;SDS011;46580;52.114;11.674;2023-05-27T02:52:12;11.63;;;3.40;;
60730;SDS011;46580;52.114;11.674;2023-05-27T02:54:37;13.30;;;3.90;;
60730;SDS011;46580;52.114;11.674;2023-05-27T02:57:03;10.60;;;3.83;;
60730;SDS011;46580;52.114;11.674;2023-05-27T02:59:28;8.83;;;3.60;;
60730;SDS011;46580;52.114;11.674;2023-05-27T03:01:54;8.97;;;3.87;;
60730;SDS011;46580;52.114;11.674;2023-05-27T03:04:19;7.47;;;3.70;;
60730;SDS011;46580;52.114;11.674;2023-05-27T03:06:46;10.87;;;4.00;;
60730;SDS011;46580;52.114;11.674;2023-05-27T03:09:12;7.63;;;3.57;;
60730;SDS011;46580;52.114;11.674;2023-05-27T03:11:39;10.17;;;3.20;;
60730;SDS011;46580;52.114;11.674;2023-05-27T03:14:05;10.93;;;3.93;;
60730;SDS011;46580;52.114;11.674;2023-05-27T03:16:30;11.27;;;3.33;;
60730;SDS011;46580;52.114;11.674;2023-05-27T03:18:56;10.20;;;3.23;;
60730;SDS011;46580;52.114;11.674;2023-05-27T03:21:22;9.87;;;3.73;;
60730;SDS011;46580;52.114;11.674;2023-05-27T03:23:47;9.17;;;3.73;;
60730;SDS011;46580;52.114;11.674;2023-05-27T03:26:13;9.43;;;3.97;;
60730;SDS011;46580;52.114;11.674;2023-05-27T03:28:38;9.37;;;3.77;;
60730;SDS011;46580;52.114;11.674;2023-05-27T03:31:03;8.30;;;3.40;;
60730;SDS011;46580;52.114;11.674;2023-05-27T03:33:30;8.70;;;3.50;;
60730;SDS011;46580;52.114;11.674;2023-05-27T03:35:56;6.83;;;3.73;;
60730;SDS011;46580;52.114;11.674;2023-05-27T03:38:21;10.03;;;3.63;;
60730;SDS011;46580;52.114;11.674;2023-05-27T03:40:46;5.73;;;3.43;;
60730;SDS011;46580;52.114;11.674;2023-05-27T03:43:12;9.03;;;4.10;;
60730;SDS011;46580;52.114;11.674;2023-05-27T03:45:40;11.57;;;4.03;;
60730;SDS011;46580;52.114;11.674;2023-05-27T03:48:05;7.87;;;3.50;;
60730;SDS011;46580;52.114;11.674;2023-05-27T03:50:34;11.30;;;4.20;;
60730;SDS011;46580;52.114;11.674;2023-05-27T03:52:59;6.73;;;3.50;;
60730;SDS011;46580;52.114;11.674;2023-05-27T03:55:25;8.30;;;3.87;;
60730;SDS011;46580;52.114;11.674;2023-05-27T03:57:51;12.67;;;4.17;;
60730;SDS011;46580;52.114;11.674;2023-05-27T04:00:19;12.93;;;4.67;;
60730;SDS011;46580;52.114;11.674;2023-05-27T04:02:45;11.97;;;4.23;;
60730;SDS011;46580;52.114;11.674;2023-05-27T04:05:10;9.30;;;3.40;;
60730;SDS011;46580;52.114;11.674;2023-05-27T04:07:36;15.37;;;4.93;;
60730;SDS011;46580;52.114;11.674;2023-05-27T04:10:01;11.37;;;3.90;;
60730;SDS011;46580;52.114;11.674;2023-05-27T04:12:26;10.70;;;4.10;;
60730;SDS011;46580;52.114;11.674;2023-05-27T04:14:52;12.23;;;4.80;;
60730;SDS011;46580;52.114;11.674;2023-05-27T04:17:17;12.40;;;4.73;;
60730;SDS011;46580;52.114;11.674;2023-05-27T04:19:43;8.73;;;3.87;;
60730;SDS011;46580;52.114;11.674;2023-05-27T04:22:08;13.17;;;4.47;;
60730;SDS011;46580;52.114;11.674;2023-05-27T04:24:34;13.53;;;4.40;;
60730;SDS011;46580;52.114;11.674;2023-05-27T04:27:00;11.80;;;4.10;;
60730;SDS011;46580;52.114;11.674;2023-05-27T04:29:26;6.20;;;4.10;;
60730;SDS011;46580;52.114;11.674;2023-05-27T04:31:52;9.30;;;3.77;;
60730;SDS011;46580;52.114;11.674;2023-05-27T04:34:18;6.87;;;3.80;;
60730;SDS011;46580;52.114;11.674;2023-05-27T04:36:43;10.03;;;4.33;;
60730;SDS011;46580;52.114;11.674;2023-05-27T04:39:14;14.63;;;4.67;;
60730;SDS011;46580;52.114;11.674;2023-05-27T04:41:40;12.93;;;4.50;;
60730;SDS011;46580;52.114;11.674;2023-05-27T04:44:06;12.33;;;4.60;;
60730;SDS011;46580;52.114;11.674;2023-05-27T04:46:32;12.57;;;4.67;;
60730;SDS011;46580;52.114;11.674;2023-05-27T04:48:58;11.67;;;4.47;;
60730;SDS011;46580;52.114;11.674;2023-05-27T04:51:24;9.87;;;4.77;;
60730;SDS011;46580;52.114;11.674;2023-05-27T04:53:50;13.13;;;4.43;;
60730;SDS011;46580;52.114;11.674;2023-05-27T04:56:15;8.17;;;4.43;;
60730;SDS011;46580;52.114;11.674;2023-05-27T04:58:43;10.77;;;3.80;;
60730;SDS011;46580;52.114;11.674;2023-05-27T05:01:13;14.83;;;4.47;;
60730;SDS011;46580;52.114;11.674;2023-05-27T05:03:45;9.33;;;4.30;;
60730;SDS011;46580;52.114;11.674;2023-05-27T05:06:29;11.43;;;4.30;;
60730;SDS011;46580;52.114;11.674;2023-05-27T05:08:55;13.17;;;4.27;;
60730;SDS011;46580;52.114;11.674;2023-05-27T05:11:20;8.93;;;4.30;;
60730;SDS011;46580;52.114;11.674;2023-05-27T05:13:46;10.10;;;3.77;;
60730;SDS011;46580;52.114;11.674;2023-05-27T05:16:11;16.23;;;4.50;;
60730;SDS011;46580;52.114;11.674;2023-05-27T05:18:37;14.70;;;4.20;;
60730;SDS011;46580;52.114;11.674;2023-05-27T05:21:03;12.57;;;4.23;;
60730;SDS011;46580;52.114;11.674;2023-05-27T05:23:28;10.10;;;4.73;;
60730;SDS011;46580;52.114;11.674;2023-05-27T05:25:55;12.37;;;4.13;;
60730;SDS011;46580;52.114;11.674;2023-05-27T05:28:23;12.07;;;4.17;;
60730;SDS011;46580;52.114;11.674;2023-05-27T05:30:49;16.70;;;4.50;;
60730;SDS011;46580;52.114;11.674;2023-05-27T05:33:15;14.93;;;4.60;;
60730;SDS011;46580;52.114;11.674;2023-05-27T05:35:40;19.53;;;4.93;;
60730;SDS011;46580;52.114;11.674;2023-05-27T05:38:06;14.97;;;4.07;;
60730;SDS011;46580;52.114;11.674;2023-05-27T05:40:32;11.20;;;4.17;;
60730;SDS011;46580;52.114;11.674;2023-05-27T05:42:57;18.07;;;4.47;;
60730;SDS011;46580;52.114;11.674;2023-05-27T05:45:23;16.00;;;4.47;;
60730;SDS011;46580;52.114;11.674;2023-05-27T05:47:49;13.73;;;3.90;;
60730;SDS011;46580;52.114;11.674;2023-05-27T05:50:15;13.57;;;4.07;;
60730;SDS011;46580;52.114;11.674;2023-05-27T05:52:40;12.40;;;5.13;;
60730;SDS011;46580;52.114;11.674;2023-05-27T05:55:06;9.60;;;4.03;;
60730;SDS011;46580;52.114;11.674;2023-05-27T05:57:32;8.97;;;3.77;;
60730;SDS011;46580;52.114;11.674;2023-05-27T05:59:57;9.27;;;3.80;;
60730;SDS011;46580;52.114;11.674;2023-05-27T06:02:23;11.53;;;3.63;;
60730;SDS011;46580;52.114;11.674;2023-05-27T06:04:50;10.67;;;3.57;;
60730;SDS011;46580;52.114;11.674;2023-05-27T06:07:16;14.03;;;3.87;;
60730;SDS011;46580;52.114;11.674;2023-05-27T06:09:42;12.43;;;4.07;;
60730;SDS011;46580;52.114;11.674;2023-05-27T06:12:09;11.27;;;3.57;;
60730;SDS011;46580;52.114;11.674;2023-05-27T06:14:38;13.00;;;4.77;;
60730;SDS011;46580;52.114;11.674;2023-05-27T06:17:04;12.10;;;3.97;;
60730;SDS011;46580;52.114;11.674;2023-05-27T06:19:30;11.07;;;4.00;;
60730;SDS011;46580;52.114;11.674;2023-05-27T06:21:56;10.97;;;3.77;;
60730;SDS011;46580;52.114;11.674;2023-05-27T06:24:21;12.33;;;3.70;;
60730;SDS011;46580;52.114;11.674;2023-05-27T06:26:47;14.80;;;4.20;;
60730;SDS011;46580;52.114;11.674;2023-05-27T06:29:14;12.50;;;3.93;;
60730;SDS011;46580;52.114;11.674;2023-05-27T06:31:40;11.37;;;3.70;;
60730;SDS011;46580;52.114;11.674;2023-05-27T06:34:05;9.20;;;2.87;;
60730;SDS011;46580;52.114;11.674;2023-05-27T06:36:30;12.40;;;3.23;;
60730;SDS011;46580;52.114;11.674;2023-05-27T06:38:56;15.33;;;3.63;;
60730;SDS011;46580;52.114;11.674;2023-05-27T06:41:22;12.87;;;3.50;;
60730;SDS011;46580;52.114;11.674;2023-05-27T06:43:47;8.73;;;2.67;;
60730;SDS011;46580;52.114;11.674;2023-05-27T06:46:13;9.50;;;3.40;;
60730;SDS011;46580;52.114;11.674;2023-05-27T06:48:38;10.90;;;3.50;;
60730;SDS011;46580;52.114;11.674;2023-05-27T06:51:04;14.20;;;4.53;;
60730;SDS011;46580;52.114;11.674;2023-05-27T06:53:33;13.53;;;3.40;;
60730;SDS011;46580;52.114;11.674;2023-05-27T06:55:58;10.63;;;3.83;;
60730;SDS011;46580;52.114;11.674;2023-05-27T06:58:23;14.23;;;3.10;;
60730;SDS011;46580;52.114;11.674;2023-05-27T07:00:49;12.53;;;3.30;;
60730;SDS011;46580;52.114;11.674;2023-05-27T07:03:14;11.83;;;2.77;;
60730;SDS011;46580;52.114;11.674;2023-05-27T07:05:40;9.27;;;2.90;;
60730;SDS011;46580;52.114;11.674;2023-05-27T07:08:05;11.40;;;3.43;;
60730;SDS011;46580;52.114;11.674;2023-05-27T07:10:31;11.47;;;3.57;;
60730;SDS011;46580;52.114;11.674;2023-05-27T07:12:57;11.43;;;3.93;;
60730;SDS011;46580;52.114;11.674;2023-05-27T07:15:22;10.87;;;3.57;;
60730;SDS011;46580;52.114;11.674;2023-05-27T07:17:48;13.63;;;3.40;;
60730;SDS011;46580;52.114;11.674;2023-05-27T07:20:13;14.30;;;3.30;;
60730;SDS011;46580;52.114;11.674;2023-05-27T07:22:39;10.10;;;3.00;;
60730;SDS011;46580;52.114;11.674;2023-05-27T07:25:04;16.93;;;3.77;;
60730;SDS011;46580;52.114;11.674;2023-05-27T07:27:30;9.27;;;2.83;;
60730;SDS011;46580;52.114;11.674;2023-05-27T07:29:55;7.87;;;2.70;;
60730;SDS011;46580;52.114;11.674;2023-05-27T07:32:23;14.00;;;3.00;;
60730;SDS011;46580;52.114;11.674;2023-05-27T07:34:50;8.80;;;2.80;;
60730;SDS011;46580;52.114;11.674;2023-05-27T07:37:16;9.23;;;2.23;;
60730;SDS011;46580;52.114;11.674;2023-05-27T07:39:41;10.60;;;3.10;;
60730;SDS011;46580;52.114;11.674;2023-05-27T07:42:07;9.73;;;2.70;;
60730;SDS011;46580;52.114;11.674;2023-05-27T07:44:33;7.13;;;2.57;;
60730;SDS011;46580;52.114;11.674;2023-05-27T07:46:58;8.17;;;2.60;;
60730;SDS011;46580;52.114;11.674;2023-05-27T07:49:25;9.10;;;3.20;;
60730;SDS011;46580;52.114;11.674;2023-05-27T07:51:51;8.90;;;2.27;;
60730;SDS011;46580;52.114;11.674;2023-05-27T07:54:17;8.33;;;2.37;;
60730;SDS011;46580;52.114;11.674;2023-05-27T07:56:42;10.23;;;2.87;;
60730;SDS011;46580;52.114;11.674;2023-05-27T07:59:08;6.67;;;1.77;;
60730;SDS011;46580;52.114;11.674;2023-05-27T08:01:34;15.13;;;2.60;;
60730;SDS011;46580;52.114;11.674;2023-05-27T08:04:00;15.63;;;2.90;;
60730;SDS011;46580;52.114;11.674;2023-05-27T08:06:26;9.47;;;2.33;;
60730;SDS011;46580;52.114;11.674;2023-05-27T08:08:51;7.80;;;2.13;;
60730;SDS011;46580;52.114;11.674;2023-05-27T08:11:17;14.10;;;2.57;;
60730;SDS011;46580;52.114;11.674;2023-05-27T08:13:42;13.90;;;2.70;;
60730;SDS011;46580;52.114;11.674;2023-05-27T08:16:08;7.00;;;2.37;;
60730;SDS011;46580;52.114;11.674;2023-05-27T08:18:35;4.13;;;2.23;;
60730;SDS011;46580;52.114;11.674;2023-05-27T08:21:01;5.80;;;2.63;;
60730;SDS011;46580;52.114;11.674;2023-05-27T08:23:27;10.73;;;2.27;;
60730;SDS011;46580;52.114;11.674;2023-05-27T08:25:52;14.17;;;3.07;;
60730;SDS011;46580;52.114;11.674;2023-05-27T08:28:18;11.90;;;3.63;;
60730;SDS011;46580;52.114;11.674;2023-05-27T08:30:43;11.57;;;2.97;;
60730;SDS011;46580;52.114;11.674;2023-05-27T08:33:09;7.30;;;2.60;;
60730;SDS011;46580;52.114;11.674;2023-05-27T08:35:34;7.17;;;2.03;;
60730;SDS011;46580;52.114;11.674;2023-05-27T08:38:00;6.87;;;2.30;;
60730;SDS011;46580;52.114;11.674;2023-05-27T08:40:26;12.13;;;2.43;;
60730;SDS011;46580;52.114;11.674;2023-05-27T08:42:52;9.60;;;2.53;;
60730;SDS011;46580;52.114;11.674;2023-05-27T08:45:17;6.90;;;2.13;;
60730;SDS011;46580;52.114;11.674;2023-05-27T08:47:43;6.53;;;1.83;;
60730;SDS011;46580;52.114;11.674;2023-05-27T08:50:09;11.37;;;2.20;;
60730;SDS011;46580;52.114;11.674;2023-05-27T08:52:37;9.80;;;3.07;;
60730;SDS011;46580;52.114;11.674;2023-05-27T08:55:08;11.97;;;2.57;;
60730;SDS011;46580;52.114;11.674;2023-05-27T08:57:36;10.13;;;2.10;;
60730;SDS011;46580;52.114;11.674;2023-05-27T09:00:04;7.53;;;2.93;;
60730;SDS011;46580;52.114;11.674;2023-05-27T09:02:36;6.13;;;2.30;;
60730;SDS011;46580;52.114;11.674;2023-05-27T09:05:02;6.87;;;1.93;;
60730;SDS011;46580;52.114;11.674;2023-05-27T09:07:27;7.47;;;2.70;;
60730;SDS011;46580;52.114;11.674;2023-05-27T09:09:56;5.87;;;1.93;;
60730;SDS011;46580;52.114;11.674;2023-05-27T09:12:23;8.97;;;2.53;;
60730;SDS011;46580;52.114;11.674;2023-05-27T09:14:50;9.20;;;2.40;;
60730;SDS011;46580;52.114;11.674;2023-05-27T09:17:16;8.37;;;2.23;;
60730;SDS011;46580;52.114;11.674;2023-05-27T09:19:41;11.97;;;2.30;;
60730;SDS011;46580;52.114;11.674;2023-05-27T09:22:20;5.80;;;2.43;;
60730;SDS011;46580;52.114;11.674;2023-05-27T09:24:52;7.40;;;2.33;;
60730;SDS011;46580;52.114;11.674;2023-05-27T09:27:18;6.53;;;2.40;;
60730;SDS011;46580;52.114;11.674;2023-05-27T09:29:44;8.47;;;2.40;;
60730;SDS011;46580;52.114;11.674;2023-05-27T09:32:09;7.33;;;2.60;;
60730;SDS011;46580;52.114;11.674;2023-05-27T09:34:39;10.53;;;2.40;;
60730;SDS011;46580;52.114;11.674;2023-05-27T09:37:04;6.70;;;2.40;;
60730;SDS011;46580;52.114;11.674;2023-05-27T09:39:30;6.90;;;2.07;;
60730;SDS011;46580;52.114;11.674;2023-05-27T09:41:59;9.47;;;2.47;;
60730;SDS011;46580;52.114;11.674;2023-05-27T09:44:29;5.33;;;2.20;;
60730;SDS011;46580;52.114;11.674;2023-05-27T09:47:02;8.83;;;2.37;;
60730;SDS011;46580;52.114;11.674;2023-05-27T09:49:29;7.60;;;2.40;;
60730;SDS011;46580;52.114;11.674;2023-05-27T09:51:57;8.53;;;2.60;;
60730;SDS011;46580;52.114;11.674;2023-05-27T09:54:24;10.30;;;2.60;;
60730;SDS011;46580;52.114;11.674;2023-05-27T09:56:52;7.10;;;2.17;;
60730;SDS011;46580;52.114;11.674;2023-05-27T09:59:18;7.97;;;2.53;;
60730;SDS011;46580;52.114;11.674;2023-05-27T10:01:44;9.50;;;2.53;;
60730;SDS011;46580;52.114;11.674;2023-05-27T10:04:13;9.93;;;2.20;;
60730;SDS011;46580;52.114;11.674;2023-05-27T10:06:39;7.20;;;2.40;;
60730;SDS011;46580;52.114;11.674;2023-05-27T10:09:06;9.67;;;1.83;;
60730;SDS011;46580;52.114;11.674;2023-05-27T10:11:32;7.70;;;2.37;;
60730;SDS011;46580;52.114;11.674;2023-05-27T10:14:04;5.73;;;1.87;;
60730;SDS011;46580;52.114;11.674;2023-05-27T10:16:31;5.50;;;2.03;;
60730;SDS011;46580;52.114;11.674;2023-05-27T10:18:57;9.00;;;2.60;;
60730;SDS011;46580;52.114;11.674;2023-05-27T10:21:23;9.83;;;2.40;;
60730;SDS011;46580;52.114;11.674;2023-05-27T10:23:56;7.23;;;2.20;;
60730;SDS011;46580;52.114;11.674;2023-05-27T10:26:33;9.20;;;2.70;;
60730;SDS011;46580;52.114;11.674;2023-05-27T10:29:12;7.83;;;2.40;;
60730;SDS011;46580;52.114;11.674;2023-05-27T10:31:49;9.40;;;2.40;;
60730;SDS011;46580;52.114;11.674;2023-05-27T10:34:16;4.97;;;1.97;;
60730;SDS011;46580;52.114;11.674;2023-05-27T10:36:43;9.40;;;2.40;;
60730;SDS011;46580;52.114;11.674;2023-05-27T10:39:14;4.80;;;2.20;;
60730;SDS011;46580;52.114;11.674;2023-05-27T10:46:58;8.17;;;2.20;;
60730;SDS011;46580;52.114;11.674;2023-05-27T10:49:28;9.53;;;1.80;;
60730;SDS011;46580;52.114;11.674;2023-05-27T10:54:38;9.07;;;2.60;;
60730;SDS011;46580;52.114;11.674;2023-05-27T10:57:05;7.13;;;2.27;;
60730;SDS011;46580;52.114;11.674;2023-05-27T11:02:07;6.13;;;2.43;;
60730;SDS011;46580;52.114;11.674;2023-05-27T11:04:35;8.23;;;2.47;;
60730;SDS011;46580;52.114;11.674;2023-05-27T11:07:01;10.67;;;2.93;;
60730;SDS011;46580;52.114;11.674;2023-05-27T11:09:30;8.10;;;2.17;;
60730;SDS011;46580;52.114;11.674;2023-05-27T11:12:07;9.43;;;2.83;;
60730;SDS011;46580;52.114;11.674;2023-05-27T11:14:32;5.70;;;2.33;;
60730;SDS011;46580;52.114;11.674;2023-05-27T11:16:58;5.37;;;2.37;;
60730;SDS011;46580;52.114;11.674;2023-05-27T11:19:24;11.07;;;2.40;;
60730;SDS011;46580;52.114;11.674;2023-05-27T11:21:49;9.53;;;1.87;;
60730;SDS011;46580;52.114;11.674;2023-05-27T11:24:15;6.63;;;2.30;;
60730;SDS011;46580;52.114;11.674;2023-05-27T11:26:45;9.47;;;2.90;;
60730;SDS011;46580;52.114;11.674;2023-05-27T11:29:12;7.73;;;2.30;;
60730;SDS011;46580;52.114;11.674;2023-05-27T11:31:40;7.40;;;2.43;;
60730;SDS011;46580;52.114;11.674;2023-05-27T11:34:14;9.57;;;2.03;;
60730;SDS011;46580;52.114;11.674;2023-05-27T11:36:44;8.77;;;2.67;;
60730;SDS011;46580;52.114;11.674;2023-05-27T11:39:13;6.33;;;2.10;;
60730;SDS011;46580;52.114;11.674;2023-05-27T11:41:50;7.53;;;2.40;;
60730;SDS011;46580;52.114;11.674;2023-05-27T11:44:18;8.33;;;2.53;;
60730;SDS011;46580;52.114;11.674;2023-05-27T11:46:46;6.57;;;2.07;;
60730;SDS011;46580;52.114;11.674;2023-05-27T11:49:13;6.63;;;2.50;;
60730;SDS011;46580;52.114;11.674;2023-05-27T11:51:41;4.80;;;2.23;;
60730;SDS011;46580;52.114;11.674;2023-05-27T11:54:48;7.80;;;1.97;;
60730;SDS011;46580;52.114;11.674;2023-05-27T11:57:04;6.97;;;2.20;;
60730;SDS011;46580;52.114;11.674;2023-05-27T11:59:38;7.90;;;2.40;;
60730;SDS011;46580;52.114;11.674;2023-05-27T12:02:03;8.57;;;2.30;;
60730;SDS011;46580;52.114;11.674;2023-05-27T12:04:29;6.20;;;2.20;;
60730;SDS011;46580;52.114;11.674;2023-05-27T12:06:55;8.07;;;2.50;;
60730;SDS011;46580;52.114;11.674;2023-05-27T12:09:23;6.27;;;2.20;;
60730;SDS011;46580;52.114;11.674;2023-05-27T12:11:48;6.33;;;2.50;;
60730;SDS011;46580;52.114;11.674;2023-05-27T12:14:14;9.17;;;2.37;;
60730;SDS011;46580;52.114;11.674;2023-05-27T12:16:40;5.43;;;2.10;;
60730;SDS011;46580;52.114;11.674;2023-05-27T12:19:05;4.27;;;1.83;;
60730;SDS011;46580;52.114;11.674;2023-05-27T12:21:30;6.23;;;2.00;;
60730;SDS011;46580;52.114;11.674;2023-05-27T12:23:57;9.17;;;2.20;;
60730;SDS011;46580;52.114;11.674;2023-05-27T12:26:22;5.43;;;2.07;;
60730;SDS011;46580;52.114;11.674;2023-05-27T12:28:49;6.93;;;2.53;;
60730;SDS011;46580;52.114;11.674;2023-05-27T12:31:15;6.80;;;2.20;;
60730;SDS011;46580;52.114;11.674;2023-05-27T12:33:41;8.10;;;2.00;;
60730;SDS011;46580;52.114;11.674;2023-05-27T12:36:06;5.87;;;2.33;;
60730;SDS011;46580;52.114;11.674;2023-05-27T12:38:32;6.87;;;2.20;;
60730;SDS011;46580;52.114;11.674;2023-05-27T12:41:00;9.30;;;2.33;;
60730;SDS011;46580;52.114;11.674;2023-05-27T12:43:26;8.20;;;2.07;;
60730;SDS011;46580;52.114;11.674;2023-05-27T12:45:51;4.93;;;2.07;;
60730;SDS011;46580;52.114;11.674;2023-05-27T12:48:17;6.73;;;2.40;;
60730;SDS011;46580;52.114;11.674;2023-05-27T12:50:43;9.77;;;2.70;;
60730;SDS011;46580;52.114;11.674;2023-05-27T12:53:09;8.33;;;2.17;;
60730;SDS011;46580;52.114;11.674;2023-05-27T12:55:35;4.53;;;1.83;;
60730;SDS011;46580;52.114;11.674;2023-05-27T12:58:07;6.83;;;2.60;;
60730;SDS011;46580;52.114;11.674;2023-05-27T13:00:33;9.30;;;2.40;;
60730;SDS011;46580;52.114;11.674;2023-05-27T13:02:59;6.20;;;2.30;;
60730;SDS011;46580;52.114;11.674;2023-05-27T13:05:25;9.40;;;2.63;;
60730;SDS011;46580;52.114;11.674;2023-05-27T13:08:00;12.63;;;2.57;;
60730;SDS011;46580;52.114;11.674;2023-05-27T13:10:26;6.20;;;2.60;;
60730;SDS011;46580;52.114;11.674;2023-05-27T13:12:52;6.90;;;2.10;;
60730;SDS011;46580;52.114;11.674;2023-05-27T13:15:18;5.13;;;2.10;;
60730;SDS011;46580;52.114;11.674;2023-05-27T13:17:45;4.93;;;1.93;;
60730;SDS011;46580;52.114;11.674;2023-05-27T13:20:12;4.33;;;2.10;;
60730;SDS011;46580;52.114;11.674;2023-05-27T13:22:37;8.57;;;1.90;;
60730;SDS011;46580;52.114;11.674;2023-05-27T13:25:03;5.87;;;2.50;;
60730;SDS011;46580;52.114;11.674;2023-05-27T13:27:28;3.00;;;1.37;;
60730;SDS011;46580;52.114;11.674;2023-05-27T13:29:53;3.67;;;1.60;;
60730;SDS011;46580;52.114;11.674;2023-05-27T13:32:19;5.57;;;1.83;;
60730;SDS011;46580;52.114;11.674;2023-05-27T13:34:44;7.47;;;2.00;;
60730;SDS011;46580;52.114;11.674;2023-05-27T13:37:10;4.60;;;1.70;;
60730;SDS011;46580;52.114;11.674;2023-05-27T13:39:36;6.13;;;2.23;;
60730;SDS011;46580;52.114;11.674;2023-05-27T13:42:07;6.07;;;2.17;;
60730;SDS011;46580;52.114;11.674;2023-05-27T13:44:33;5.97;;;2.10;;
60730;SDS011;46580;52.114;11.674;2023-05-27T13:46:58;4.27;;;1.97;;
60730;SDS011;46580;52.114;11.674;2023-05-27T13:49:23;6.53;;;2.13;;
60730;SDS011;46580;52.114;11.674;2023-05-27T13:51:48;4.87;;;2.03;;
60730;SDS011;46580;52.114;11.674;2023-05-27T13:54:14;3.07;;;1.73;;
60730;SDS011;46580;52.114;11.674;2023-05-27T13:56:39;6.30;;;1.87;;
60730;SDS011;46580;52.114;11.674;2023-05-27T13:59:04;4.80;;;2.03;;
60730;SDS011;46580;52.114;11.674;2023-05-27T14:01:30;6.77;;;2.33;;
60730;SDS011;46580;52.114;11.674;2023-05-27T14:03:56;4.97;;;1.80;;
60730;SDS011;46580;52.114;11.674;2023-05-27T14:06:21;3.67;;;2.03;;
60730;SDS011;46580;52.114;11.674;2023-05-27T14:08:47;5.70;;;2.00;;
60730;SDS011;46580;52.114;11.674;2023-05-27T14:11:12;4.87;;;1.80;;
60730;SDS011;46580;52.114;11.674;2023-05-27T14:13:37;5.30;;;2.20;;
60730;SDS011;46580;52.114;11.674;2023-05-27T14:16:02;6.17;;;1.90;;
60730;SDS011;46580;52.114;11.674;2023-05-27T14:18:28;5.80;;;1.43;;
60730;SDS011;46580;52.114;11.674;2023-05-27T14:20:54;4.80;;;1.97;;
60730;SDS011;46580;52.114;11.674;2023-05-27T14:23:19;5.30;;;1.23;;
60730;SDS011;46580;52.114;11.674;2023-05-27T14:25:44;5.03;;;1.83;;
60730;SDS011;46580;52.114;11.674;2023-05-27T14:28:10;4.40;;;1.83;;
60730;SDS011;46580;52.114;11.674;2023-05-27T14:30:35;3.17;;;1.47;;
60730;SDS011;46580;52.114;11.674;2023-05-27T14:33:04;3.47;;;1.73;;
60730;SDS011;46580;52.114;11.674;2023-05-27T14:35:32;5.47;;;1.80;;
60730;SDS011;46580;52.114;11.674;2023-05-27T14:37:58;7.60;;;1.60;;
60730;SDS011;46580;52.114;11.674;2023-05-27T14:40:23;4.20;;;1.97;;